Time;durP1;ratioP1;P1;durP2;ratioP2;P2;SDS_P1;SDS_P2;PMS_P1;PMS_P2;Temp;Humidity;BMP_temperature;BMP_pressure;BME280_temperature;BME280_humidity;BME280_pressure;Samples;Min_cycle;Max_cycle;Signal;HPM_P1;HPM_P2
2021/03/02 00:00:17;;;;;;;4.40;3.60;;;10.50;86.70;;;;;;6300185;22;21062;-82
2021/03/02 00:02:44;;;;;;;4.33;3.93;;;10.30;87.40;;;;;;6272230;22;21072;-83
2021/03/02 00:05:14;;;;;;;4.43;3.43;;;10.20;88.00;;;;;;6277100;22;20445;-81
2021/03/02 00:07:41;;;;;;;4.07;3.67;;;10.30;89.90;;;;;;6281445;22;20390;-84
2021/03/02 00:10:12;;;;;;;3.73;3.40;;;10.20;90.60;;;;;;6302882;22;20411;-83
2021/03/02 00:12:41;;;;;;;4.17;3.77;;;10.10;90.90;;;;;;6273562;22;20877;-82
2021/03/02 00:15:11;;;;;;;3.97;3.57;;;10.00;91.00;;;;;;6273017;22;20464;-82
2021/03/02 00:17:48;;;;;;;3.33;3.00;;;10.00;91.10;;;;;;6272588;22;20912;-84
2021/03/02 00:20:17;;;;;;;4.13;3.73;;;10.10;91.20;;;;;;6277550;22;21032;-82
2021/03/02 00:23:22;;;;;;;3.80;3.50;;;10.30;90.70;;;;;;6301445;22;21235;-84
2021/03/02 00:25:50;;;;;;;4.10;3.70;;;10.10;90.40;;;;;;6216559;22;20429;-81
2021/03/02 00:28:20;;;;;;;4.27;3.87;;;10.00;90.60;;;;;;6277842;22;20902;-83
2021/03/02 00:30:49;;;;;;;4.27;3.87;;;10.00;90.80;;;;;;6305011;22;20483;-82
2021/03/02 00:33:17;;;;;;;4.47;3.30;;;10.10;90.90;;;;;;6276120;22;20422;-84
2021/03/02 00:35:44;;;;;;;3.97;3.53;;;10.10;90.70;;;;;;6274508;22;20471;-84
2021/03/02 00:38:11;;;;;;;4.13;3.70;;;10.20;90.60;;;;;;6275148;22;20410;-83
2021/03/02 00:40:37;;;;;;;5.27;3.80;;;10.20;90.60;;;;;;6274759;22;20410;-84
2021/03/02 00:43:07;;;;;;;4.50;4.10;;;10.30;90.60;;;;;;6274817;22;20407;-81
2021/03/02 00:45:34;;;;;;;4.63;3.77;;;10.40;90.70;;;;;;6276065;22;20437;-83
2021/03/02 00:48:00;;;;;;;4.70;3.73;;;10.20;91.10;;;;;;6287971;22;20424;-80
2021/03/02 00:50:28;;;;;;;5.43;4.07;;;10.20;91.10;;;;;;6291444;22;20402;-82
2021/03/02 00:52:55;;;;;;;4.10;3.50;;;10.00;91.60;;;;;;6288285;22;20417;-82
2021/03/02 00:55:25;;;;;;;4.60;4.13;;;9.90;92.40;;;;;;6315895;22;20446;-82
2021/03/02 00:57:52;;;;;;;4.30;3.90;;;9.90;92.60;;;;;;6275684;22;20387;-83
2021/03/02 01:00:19;;;;;;;4.90;4.40;;;10.00;92.00;;;;;;6273821;22;20410;-83
2021/03/02 01:02:46;;;;;;;5.23;4.50;;;10.10;91.40;;;;;;6278049;22;20436;-81
2021/03/02 01:05:13;;;;;;;4.97;4.00;;;10.10;91.30;;;;;;6283406;22;20441;-80
2021/03/02 01:07:40;;;;;;;4.67;4.27;;;10.00;91.30;;;;;;6307229;22;20514;-82
2021/03/02 01:10:08;;;;;;;4.70;4.30;;;9.90;91.80;;;;;;6284054;22;20407;-82
2021/03/02 01:12:35;;;;;;;5.00;3.97;;;9.90;92.00;;;;;;6287720;22;20424;-81
2021/03/02 01:15:04;;;;;;;4.23;3.73;;;9.90;92.20;;;;;;6286933;22;20461;-81
2021/03/02 01:17:30;;;;;;;4.00;3.60;;;9.80;92.20;;;;;;6304406;22;20436;-82
2021/03/02 01:19:57;;;;;;;3.57;3.27;;;10.00;91.50;;;;;;6304042;22;20414;-82
2021/03/02 01:22:23;;;;;;;5.23;4.07;;;9.80;91.80;;;;;;6288431;22;20406;-82
2021/03/02 01:24:50;;;;;;;4.77;3.93;;;9.80;92.10;;;;;;6315397;22;20450;-82
2021/03/02 01:27:16;;;;;;;3.97;3.60;;;9.90;92.10;;;;;;6310640;22;20425;-80
2021/03/02 01:29:43;;;;;;;5.23;4.53;;;9.90;92.10;;;;;;6279352;22;20835;-83
2021/03/02 01:32:09;;;;;;;4.50;4.10;;;9.90;92.10;;;;;;6279724;22;20961;-82
2021/03/02 01:34:36;;;;;;;4.70;4.30;;;9.90;92.30;;;;;;6307139;22;20446;-80
2021/03/02 01:37:02;;;;;;;4.80;4.40;;;10.00;92.50;;;;;;6314034;22;20446;-80
2021/03/02 01:39:30;;;;;;;4.90;4.40;;;9.90;93.40;;;;;;6315990;22;20410;-80
2021/03/02 01:41:57;;;;;;;5.20;4.50;;;9.80;94.00;;;;;;6288894;22;20864;-81
2021/03/02 01:44:28;;;;;;;6.73;4.07;;;9.60;94.40;;;;;;6316737;22;20429;-81
2021/03/02 01:46:56;;;;;;;4.63;4.20;;;9.60;95.10;;;;;;6314171;22;20687;-80
2021/03/02 01:49:24;;;;;;;4.87;4.30;;;9.50;95.40;;;;;;6283242;22;20639;-83
2021/03/02 01:51:50;;;;;;;4.73;4.23;;;9.40;95.40;;;;;;6313841;22;20545;-83
2021/03/02 01:54:17;;;;;;;5.30;3.93;;;9.50;95.60;;;;;;6290084;22;20480;-84
2021/03/02 01:56:44;;;;;;;4.63;4.23;;;9.50;95.60;;;;;;6282232;22;20442;-84
2021/03/02 01:59:11;;;;;;;5.30;4.80;;;9.70;95.30;;;;;;6274412;22;20434;-84
2021/03/02 02:02:19;;;;;;;;;;;;;;;;;;;;;
2021/03/02 02:04:55;;;;;;;5.93;5.03;;;9.80;96.20;;;;;;6299819;22;20434;-84
2021/03/02 02:07:51;;;;;;;5.23;4.03;;;9.80;96.60;;;;;;6280181;22;20421;-83
2021/03/02 02:11:07;;;;;;;5.53;4.50;;;9.60;97.00;;;;;;6285494;22;20418;-85
2021/03/02 02:14:25;;;;;;;6.77;4.43;;;9.40;97.30;;;;;;6287567;22;20438;-85
2021/03/02 02:18:16;;;;;;;6.83;4.60;;;9.20;97.50;;;;;;6309770;22;20466;-82
2021/03/02 02:21:32;;;;;;;6.23;5.23;;;9.30;97.00;;;;;;6158240;23;20406;-83
2021/03/02 02:24:36;;;;;;;4.87;4.37;;;9.40;96.40;;;;;;6259789;22;20481;-84
2021/03/02 02:27:26;;;;;;;5.40;4.77;;;9.30;96.00;;;;;;6309016;22;20402;-85
2021/03/02 02:36:28;;;;;;;5.07;4.17;;;8.90;96.70;;;;;;6176870;23;20434;-82
2021/03/02 02:39:23;;;;;;;5.13;4.63;;;8.80;97.20;;;;;;6222128;22;20411;-82
2021/03/02 02:42:11;;;;;;;5.10;3.90;;;8.80;97.40;;;;;;6306375;22;20394;-82
2021/03/02 02:45:29;;;;;;;5.03;4.40;;;9.00;97.10;;;;;;6305590;22;20426;-83
2021/03/02 02:48:29;;;;;;;6.20;4.73;;;8.90;96.60;;;;;;6183480;23;20412;-83
2021/03/02 02:51:11;;;;;;;5.57;4.47;;;8.80;96.70;;;;;;6292301;22;20433;-82
2021/03/02 02:54:02;;;;;;;5.60;4.83;;;8.80;97.10;;;;;;6297974;22;20465;-82
2021/03/02 02:57:09;;;;;;;;;;;;;;;;;;;;;
2021/03/02 03:03:39;;;;;;;6.30;4.63;;;8.70;97.40;;;;;;6301827;22;20528;-82
2021/03/02 03:06:16;;;;;;;5.77;4.60;;;8.90;96.90;;;;;;6304175;22;20414;-83
2021/03/02 03:09:01;;;;;;;5.47;4.87;;;8.90;96.60;;;;;;6278923;22;20449;-85
2021/03/02 03:11:56;;;;;;;6.27;4.60;;;8.70;96.80;;;;;;6280660;22;20744;-83
2021/03/02 03:15:02;;;;;;;5.43;4.60;;;8.50;97.30;;;;;;6260001;22;20935;-83
2021/03/02 03:17:49;;;;;;;4.70;4.07;;;8.60;97.50;;;;;;6280343;22;20403;-82
2021/03/02 03:20:26;;;;;;;12.20;5.40;;;8.50;97.60;;;;;;6276393;22;20433;-83
2021/03/02 03:23:31;;;;;;;5.70;5.10;;;8.50;97.60;;;;;;6304542;22;20452;-83
2021/03/02 03:26:31;;;;;;;5.57;4.90;;;8.50;97.50;;;;;;6278594;22;20442;-83
2021/03/02 03:32:38;;;;;;;4.93;4.43;;;8.50;97.50;;;;;;6279352;22;20467;-81
2021/03/02 03:35:30;;;;;;;5.00;4.37;;;8.30;97.60;;;;;;6300863;22;20444;-85
2021/03/02 03:38:03;;;;;;;4.93;4.43;;;8.30;97.80;;;;;;6286748;22;20765;-83
2021/03/02 03:41:00;;;;;;;6.20;5.60;;;8.40;98.10;;;;;;6301907;22;20413;-83
2021/03/02 03:43:40;;;;;;;5.90;4.57;;;8.40;97.60;;;;;;6277180;22;20421;-83
2021/03/02 03:46:29;;;;;;;6.10;5.23;;;8.30;97.90;;;;;;6276417;22;20449;-82
2021/03/02 03:49:00;;;;;;;6.13;4.63;;;8.30;98.10;;;;;;6278508;22;20445;-83
2021/03/02 03:51:50;;;;;;;6.40;4.70;;;8.30;98.20;;;;;;6262284;22;20523;-83
2021/03/02 03:55:01;;;;;;;6.00;5.10;;;8.30;98.10;;;;;;6267963;22;21336;-82
2021/03/02 03:57:45;;;;;;;7.03;5.40;;;8.40;97.70;;;;;;6273420;22;20481;-83
2021/03/02 04:00:28;;;;;;;5.33;4.83;;;8.30;97.90;;;;;;6319278;22;20420;-84
2021/03/02 04:03:01;;;;;;;7.83;4.37;;;8.10;97.90;;;;;;6293261;22;20410;-84
2021/03/02 04:05:52;;;;;;;4.80;4.20;;;8.10;98.20;;;;;;6294835;22;20433;-85
2021/03/02 04:08:40;;;;;;;5.30;4.63;;;8.00;98.20;;;;;;6252447;22;20395;-83
2021/03/02 04:11:14;;;;;;;5.07;4.57;;;8.00;98.50;;;;;;6281494;22;20410;-85
2021/03/02 04:14:22;;;;;;;5.27;4.60;;;7.90;98.70;;;;;;6286644;22;20494;-82
2021/03/02 04:17:11;;;;;;;6.20;4.80;;;7.90;98.80;;;;;;6280892;22;20461;-82
2021/03/02 04:20:10;;;;;;;7.33;5.80;;;7.80;99.00;;;;;;6286780;22;20403;-84
2021/03/02 04:23:04;;;;;;;5.97;4.73;;;7.70;99.40;;;;;;6280751;22;20460;-82
2021/03/02 04:25:40;;;;;;;5.83;5.17;;;7.90;99.50;;;;;;6287749;22;20430;-83
2021/03/02 04:28:34;;;;;;;7.80;5.20;;;8.00;99.20;;;;;;6280869;22;20402;-82
2021/03/02 04:31:33;;;;;;;5.37;4.80;;;8.00;99.10;;;;;;6304983;22;20453;-84
2021/03/02 04:34:42;;;;;;;4.53;3.80;;;7.90;99.10;;;;;;6300362;22;20413;-84
2021/03/02 04:37:21;;;;;;;5.37;4.67;;;7.60;99.50;;;;;;6277838;22;20821;-83
2021/03/02 04:39:56;;;;;;;5.03;4.40;;;7.60;99.90;;;;;;6277802;22;20966;-83
2021/03/02 04:42:32;;;;;;;9.70;4.47;;;7.60;99.70;;;;;;6278493;22;20422;-84
2021/03/02 04:45:12;;;;;;;5.30;4.80;;;7.60;99.70;;;;;;6276375;22;20453;-83
2021/03/02 04:47:49;;;;;;;5.80;4.50;;;7.80;99.90;;;;;;6303197;22;20429;-84
2021/03/02 04:50:26;;;;;;;5.20;4.70;;;7.70;99.30;;;;;;6304296;22;20420;-84
2021/03/02 04:56:25;;;;;;;6.53;4.60;;;7.60;99.40;;;;;;6304697;22;20446;-85
2021/03/02 04:59:09;;;;;;;5.00;4.47;;;7.70;99.30;;;;;;6304351;22;20921;-83
2021/03/02 05:01:50;;;;;;;6.50;5.70;;;7.80;99.50;;;;;;6304101;22;20475;-84
2021/03/02 05:04:46;;;;;;;7.30;5.43;;;7.80;99.10;;;;;;6278593;22;20434;-85
2021/03/02 05:07:30;;;;;;;7.57;5.00;;;7.80;98.90;;;;;;6181085;23;20397;-83
2021/03/02 05:10:13;;;;;;;5.57;4.70;;;7.80;99.30;;;;;;6181496;23;20490;-82
2021/03/02 05:13:02;;;;;;;5.67;5.07;;;7.80;99.20;;;;;;6180574;23;20418;-81
2021/03/02 05:15:36;;;;;;;5.77;5.10;;;7.80;99.60;;;;;;6163506;23;20513;-82
2021/03/02 05:18:13;;;;;;;7.27;4.97;;;7.70;99.60;;;;;;6174401;23;20405;-83
2021/03/02 05:20:56;;;;;;;6.17;4.90;;;7.50;99.90;;;;;;6189054;23;20401;-83
2021/03/02 05:23:34;;;;;;;5.53;4.73;;;7.60;99.90;;;;;;6198477;23;20426;-84
2021/03/02 05:26:08;;;;;;;6.37;4.80;;;7.40;99.90;;;;;;6195672;23;20444;-83
2021/03/02 05:29:07;;;;;;;5.33;4.40;;;7.30;99.90;;;;;;6176613;23;20394;-82
2021/03/02 05:31:55;;;;;;;5.70;5.00;;;7.40;99.90;;;;;;6199603;23;20420;-83
2021/03/02 05:34:44;;;;;;;8.07;4.63;;;7.50;99.90;;;;;;6200951;23;20421;-83
2021/03/02 05:37:32;;;;;;;7.50;5.03;;;7.60;99.90;;;;;;6199461;23;20465;-82
2021/03/02 05:40:15;;;;;;;6.27;4.90;;;7.80;99.90;;;;;;6179062;23;20840;-81
2021/03/02 05:43:00;;;;;;;8.60;5.87;;;7.80;99.50;;;;;;6173593;23;20509;-83
2021/03/02 05:45:49;;;;;;;7.63;5.80;;;7.90;99.60;;;;;;6312881;22;20422;-82
2021/03/02 05:48:31;;;;;;;6.90;5.40;;;7.80;99.60;;;;;;6301986;22;20402;-83
2021/03/02 05:51:12;;;;;;;6.43;5.13;;;7.60;99.90;;;;;;6327729;22;20424;-82
2021/03/02 05:53:56;;;;;;;5.93;4.70;;;7.60;99.90;;;;;;6327115;22;20518;-81
2021/03/02 05:56:30;;;;;;;6.63;4.90;;;7.60;99.90;;;;;;6301321;22;20446;-83
2021/03/02 05:59:15;;;;;;;6.80;5.67;;;7.60;99.90;;;;;;6327112;22;20417;-81
2021/03/02 06:01:59;;;;;;;6.60;5.33;;;7.60;99.90;;;;;;6149479;23;20425;-82
2021/03/02 06:04:40;;;;;;;5.23;4.20;;;7.60;99.90;;;;;;6169950;23;20437;-82
2021/03/02 06:07:41;;;;;;;6.20;5.07;;;7.60;99.90;;;;;;6163876;23;20481;-81
2021/03/02 06:10:51;;;;;;;7.23;5.23;;;7.80;99.30;;;;;;6143435;23;20410;-83
2021/03/02 06:14:07;;;;;;;;;;;;;;;;;;;;;
2021/03/02 06:17:28;;;;;;;7.23;5.13;;;7.60;98.70;;;;;;6171954;23;20481;-81
2021/03/02 06:20:27;;;;;;;7.40;5.03;;;7.60;99.00;;;;;;6228181;22;20464;-82
2021/03/02 06:23:17;;;;;;;6.07;5.03;;;7.40;99.60;;;;;;6315976;22;20411;-84
2021/03/02 06:26:13;;;;;;;7.63;5.07;;;7.50;99.80;;;;;;6293739;22;20433;-82
2021/03/02 06:29:25;;;;;;;6.40;5.00;;;7.50;99.90;;;;;;6297381;22;20406;-83
2021/03/02 06:32:22;;;;;;;7.57;5.53;;;7.70;99.50;;;;;;6301880;22;20440;-81
2021/03/02 06:35:20;;;;;;;7.23;5.07;;;7.70;99.50;;;;;;6300079;22;20436;-84
2021/03/02 06:38:30;;;;;;;6.27;5.30;;;7.70;99.50;;;;;;6283804;22;20476;-84
2021/03/02 06:41:35;;;;;;;8.33;6.00;;;7.90;99.30;;;;;;6311643;22;20750;-82
2021/03/02 06:44:14;;;;;;;10.03;5.77;;;7.80;99.10;;;;;;6295546;22;21452;-83
2021/03/02 06:46:54;;;;;;;10.50;5.57;;;7.60;99.40;;;;;;6295350;22;20414;-83
2021/03/02 06:49:42;;;;;;;8.83;5.70;;;7.80;99.30;;;;;;6297716;22;20485;-82
2021/03/02 06:52:18;;;;;;;8.70;5.53;;;8.00;98.70;;;;;;6324935;22;20410;-81
2021/03/02 06:55:01;;;;;;;8.20;5.43;;;7.90;98.40;;;;;;6326247;22;20983;-82
2021/03/02 06:57:34;;;;;;;7.57;6.37;;;7.70;99.00;;;;;;6263134;22;20440;-83
2021/03/02 07:00:30;;;;;;;5.13;4.00;;;7.50;99.50;;;;;;6262417;22;20396;-82
2021/03/02 07:03:25;;;;;;;7.27;5.23;;;7.40;99.90;;;;;;6256869;22;20442;-82
2021/03/02 07:06:08;;;;;;;7.63;5.60;;;7.70;99.70;;;;;;6265625;22;20420;-82
2021/03/02 07:08:53;;;;;;;7.43;6.37;;;7.80;99.20;;;;;;6325510;22;20418;-83
2021/03/02 07:12:03;;;;;;;7.40;4.90;;;7.70;99.00;;;;;;6243236;22;20414;-82
2021/03/02 07:15:03;;;;;;;5.53;4.93;;;7.80;99.10;;;;;;6300764;22;20437;-84
2021/03/02 07:18:09;;;;;;;6.10;5.40;;;8.00;98.50;;;;;;6298771;22;20456;-84
2021/03/02 07:24:28;;;;;;;8.93;5.97;;;8.00;98.40;;;;;;6313703;22;20445;-85
2021/03/02 07:27:10;;;;;;;5.87;5.03;;;8.00;98.70;;;;;;6310391;22;20417;-85
2021/03/02 07:30:26;;;;;;;7.10;4.60;;;8.30;98.50;;;;;;6251940;22;20747;-81
2021/03/02 07:33:21;;;;;;;6.03;4.93;;;10.40;96.20;;;;;;6310715;22;20407;-83
2021/03/02 07:36:00;;;;;;;5.47;4.97;;;13.50;90.20;;;;;;6309632;22;20466;-82
2021/03/02 07:38:37;;;;;;;7.23;5.03;;;15.30;78.80;;;;;;6284316;22;20426;-83
2021/03/02 07:41:15;;;;;;;7.80;5.93;;;16.40;73.00;;;;;;6283358;22;20500;-84
2021/03/02 07:44:21;;;;;;;6.43;4.97;;;17.10;67.10;;;;;;6288716;22;20597;-84
2021/03/02 07:47:25;;;;;;;6.27;4.90;;;17.20;63.20;;;;;;6286754;22;20668;-82
2021/03/02 07:50:39;;;;;;;6.40;5.70;;;17.00;64.30;;;;;;6297168;22;20414;-81
2021/03/02 07:53:43;;;;;;;8.90;6.10;;;18.50;61.60;;;;;;6300434;22;20394;-83
2021/03/02 07:56:23;;;;;;;6.73;5.30;;;19.60;57.50;;;;;;6304282;22;20461;-83
2021/03/02 07:59:07;;;;;;;7.43;5.93;;;18.30;56.70;;;;;;6307625;22;20468;-83
2021/03/02 08:02:27;;;;;;;6.63;4.93;;;16.50;59.50;;;;;;6305020;22;20485;-83
2021/03/02 08:05:48;;;;;;;6.97;5.47;;;13.50;66.90;;;;;;6303610;22;20418;-84
2021/03/02 08:08:39;;;;;;;10.10;6.10;;;11.80;75.40;;;;;;6329333;22;20402;-83
2021/03/02 08:11:40;;;;;;;9.23;6.30;;;11.20;84.10;;;;;;6300619;22;20788;-84
2021/03/02 08:14:47;;;;;;;6.60;6.00;;;12.40;84.60;;;;;;6300258;22;20491;-83
2021/03/02 08:21:06;;;;;;;7.97;6.63;;;12.40;79.60;;;;;;6271358;22;20399;-83
2021/03/02 08:26:55;;;;;;;10.00;6.77;;;10.30;87.90;;;;;;6262118;22;20418;-84
2021/03/02 08:30:10;;;;;;;9.00;7.07;;;10.20;90.60;;;;;;6302545;22;20400;-82
2021/03/02 08:32:52;;;;;;;8.60;6.60;;;10.50;90.30;;;;;;6272110;22;20426;-81
2021/03/02 08:36:22;;;;;;;;;;;;;;;;;;;;;
2021/03/02 08:39:09;;;;;;;6.50;5.73;;;9.90;91.60;;;;;;6166979;23;20770;-81
2021/03/02 08:41:48;;;;;;;6.87;5.93;;;10.00;91.10;;;;;;6164927;23;20418;-82
2021/03/02 08:45:21;;;;;;;8.80;6.33;;;10.00;91.00;;;;;;6212827;22;20458;-80
2021/03/02 08:48:28;;;;;;;11.20;6.40;;;10.00;91.30;;;;;;6253604;23;20412;-83
2021/03/02 08:51:42;;;;;;;8.53;6.57;;;10.30;91.00;;;;;;6225885;23;20404;-82
2021/03/02 08:54:54;;;;;;;9.00;6.83;;;10.30;91.10;;;;;;6246804;22;20440;-83
2021/03/02 08:57:24;;;;;;;10.47;8.07;;;10.20;91.60;;;;;;6245216;23;20457;-83
2021/03/02 09:00:42;;;;;;;15.20;7.47;;;10.50;91.20;;;;;;6221228;23;20402;-84
2021/03/02 09:03:57;;;;;;;8.97;8.07;;;10.30;91.20;;;;;;6242339;22;20388;-82
2021/03/02 09:07:08;;;;;;;8.13;6.97;;;10.40;91.60;;;;;;6245295;22;20412;-84
2021/03/02 09:10:20;;;;;;;9.97;7.00;;;10.50;91.10;;;;;;6244440;23;20448;-85
2021/03/02 09:13:06;;;;;;;7.63;6.10;;;10.80;91.00;;;;;;6229234;23;20499;-84
2021/03/02 09:16:01;;;;;;;9.77;7.17;;;11.00;90.50;;;;;;6245152;22;20534;-86
2021/03/02 09:18:33;;;;;;;9.50;6.20;;;11.00;90.20;;;;;;6243596;22;20408;-85
2021/03/02 09:21:26;;;;;;;;;;;;;;;;;;;;;
2021/03/02 09:24:45;;;;;;;11.23;6.63;;;11.00;90.50;;;;;;6244069;22;20431;-82
2021/03/02 09:27:59;;;;;;;;;;;;;;;;;;;;;
2021/03/02 09:31:08;;;;;;;9.93;7.57;;;11.20;90.00;;;;;;6246962;23;20422;-84
2021/03/02 09:33:40;;;;;;;11.47;6.60;;;11.20;89.60;;;;;;6135342;23;20408;-85
2021/03/02 09:36:43;;;;;;;8.17;6.20;;;11.00;90.20;;;;;;6126693;23;20907;-84
2021/03/02 09:39:24;;;;;;;8.10;6.80;;;10.90;90.50;;;;;;6125781;23;20645;-84
2021/03/02 09:42:01;;;;;;;10.93;7.33;;;11.30;90.50;;;;;;6123249;23;20450;-83
2021/03/02 09:44:44;;;;;;;8.73;6.90;;;11.40;89.60;;;;;;6122446;23;20453;-84
2021/03/02 09:47:52;;;;;;;9.33;7.37;;;11.70;89.00;;;;;;6074715;23;20412;-85
2021/03/02 09:50:52;;;;;;;8.47;6.80;;;11.80;87.50;;;;;;6120230;23;20492;-85
2021/03/02 09:56:33;;;;;;;9.67;7.33;;;12.00;88.60;;;;;;6270772;22;20512;-84
2021/03/02 09:59:16;;;;;;;10.50;7.80;;;11.70;88.20;;;;;;6247092;22;20417;-84
2021/03/02 10:27:34;;;;;;;8.90;7.97;;;15.00;68.20;;;;;;6241792;22;20868;-86
2021/03/02 10:30:42;;;;;;;10.03;7.87;;;14.80;69.70;;;;;;6219249;23;21265;-85
2021/03/02 10:33:24;;;;;;;8.13;6.70;;;14.70;70.60;;;;;;6217035;22;20408;-86
2021/03/02 10:36:40;;;;;;;9.80;7.90;;;14.50;71.10;;;;;;6245567;23;20485;-86
2021/03/02 10:42:57;;;;;;;10.17;7.57;;;14.40;72.90;;;;;;6243780;22;20408;-84
2021/03/02 11:02:06;;;;;;;11.47;9.10;;;14.40;72.50;;;;;;6272891;22;20462;-83
2021/03/02 11:04:39;;;;;;;12.47;7.70;;;14.50;72.20;;;;;;6247485;22;20423;-84
2021/03/02 11:11:26;;;;;;;11.03;8.40;;;14.40;72.30;;;;;;6211105;22;20423;-85
2021/03/02 11:17:45;;;;;;;9.93;7.70;;;14.40;72.50;;;;;;6274246;22;20474;-85
2021/03/02 11:20:49;;;;;;;9.97;8.20;;;14.50;71.70;;;;;;6250093;23;20501;-85
2021/03/02 11:23:59;;;;;;;10.87;8.87;;;14.30;73.30;;;;;;6243012;23;20419;-84
2021/03/02 11:30:46;;;;;;;;;;;;;;;;;;;;;
2021/03/02 11:33:32;;;;;;;9.70;7.33;;;14.60;71.90;;;;;;6093126;23;20468;-85
2021/03/02 11:36:24;;;;;;;11.43;7.90;;;15.00;70.80;;;;;;6091017;23;20867;-84
2021/03/02 11:40:43;;;;;;;;;;;;;;;;;;;;;
2021/03/02 11:43:24;;;;;;;10.40;7.77;;;15.10;70.50;;;;;;6065194;23;20429;-85
2021/03/02 11:46:58;;;;;;;9.23;7.93;;;14.80;70.90;;;;;;6065122;23;20402;-84
2021/03/02 11:54:04;;;;;;;9.40;8.37;;;15.00;71.00;;;;;;6062753;23;20488;-86
2021/03/02 11:57:31;;;;;;;;;;;;;;;;;;;;;
2021/03/02 12:01:16;;;;;;;9.27;7.50;;;15.50;69.50;;;;;;6100620;23;20452;-85
2021/03/02 12:04:30;;;;;;;12.57;8.87;;;14.90;70.40;;;;;;6154172;23;20534;-84
2021/03/02 12:07:36;;;;;;;9.70;8.17;;;15.20;69.50;;;;;;6152669;23;20513;-84
2021/03/02 12:35:20;;;;;;;12.13;8.03;;;16.20;64.30;;;;;;6271487;22;20941;-84
2021/03/02 12:38:33;;;;;;;13.40;8.63;;;16.20;64.10;;;;;;6160913;23;20460;-84
2021/03/02 12:41:41;;;;;;;11.20;8.23;;;16.10;65.10;;;;;;6187854;23;20679;-86
2021/03/02 12:44:51;;;;;;;13.90;9.30;;;16.00;65.20;;;;;;6175414;23;21048;-85
2021/03/02 12:48:03;;;;;;;;;;;;;;;;;;;;;
2021/03/02 12:51:25;;;;;;;12.30;8.27;;;16.60;62.80;;;;;;6198871;23;20456;-85
2021/03/02 12:54:03;;;;;;;10.27;7.50;;;16.70;61.10;;;;;;6162245;23;20473;-84
2021/03/02 12:56:51;;;;;;;13.87;8.90;;;16.70;61.20;;;;;;6182758;23;20576;-85
2021/03/02 12:59:35;;;;;;;11.77;8.10;;;17.00;60.90;;;;;;6162417;23;20425;-86
2021/03/02 13:02:27;;;;;;;11.20;8.30;;;17.00;60.30;;;;;;6159956;23;20774;-85
2021/03/02 13:05:34;;;;;;;10.53;7.43;;;17.90;58.80;;;;;;6181111;23;20456;-86
2021/03/02 13:08:57;;;;;;;11.67;7.83;;;18.30;57.20;;;;;;6204778;22;20865;-85
2021/03/02 13:11:59;;;;;;;;;;;;;;;;;;;;;
2021/03/02 13:17:51;;;;;;;11.67;9.77;;;19.20;55.50;;;;;;6088521;23;20868;-84
2021/03/02 13:20:54;;;;;;;14.37;8.80;;;19.90;53.80;;;;;;6087621;23;20405;-86
2021/03/02 13:23:50;;;;;;;;;;;;;;;;;;;;;
2021/03/02 13:27:07;;;;;;;14.57;9.07;;;20.60;51.60;;;;;;6067461;23;20485;-83
2021/03/02 13:30:36;;;;;;;11.90;9.30;;;19.70;51.70;;;;;;6075341;23;20469;-86
2021/03/02 13:39:22;;;;;;;11.47;8.23;;;19.90;50.50;;;;;;6277299;22;20478;-84
2021/03/02 13:45:47;;;;;;;10.47;9.43;;;20.30;49.60;;;;;;6255992;22;20483;-87
2021/03/02 13:49:02;;;;;;;16.33;8.57;;;20.50;49.10;;;;;;6250989;23;20431;-87
2021/03/02 13:52:18;;;;;;;15.70;8.20;;;20.20;49.00;;;;;;6225811;23;20422;-86
2021/03/02 13:58:46;;;;;;;;;;;;;;;;;;;;;
2021/03/02 14:01:54;;;;;;;13.13;8.90;;;20.90;47.20;;;;;;6149148;23;20414;-84
2021/03/02 14:04:56;;;;;;;11.07;9.13;;;20.40;47.40;;;;;;6131074;23;20439;-83
2021/03/02 14:08:22;;;;;;;12.30;8.47;;;20.30;47.40;;;;;;6124130;23;20429;-85
2021/03/02 14:11:11;;;;;;;12.00;8.60;;;19.90;47.80;;;;;;6159921;23;20443;-85
2021/03/02 14:18:11;;;;;;;11.63;8.00;;;19.00;48.40;;;;;;6114269;23;20518;-83
2021/03/02 14:21:11;;;;;;;11.10;8.40;;;18.90;48.80;;;;;;6138130;23;20578;-85
2021/03/02 14:24:31;;;;;;;11.20;8.03;;;18.80;49.00;;;;;;6149241;23;20430;-87
2021/03/02 14:27:42;;;;;;;;;;;;;;;;;;;;;
2021/03/02 14:30:37;;;;;;;11.53;8.20;;;18.60;48.80;;;;;;6138098;23;20414;-85
2021/03/02 14:33:48;;;;;;;13.37;9.27;;;18.40;49.70;;;;;;6219487;23;20415;-85
2021/03/02 14:36:46;;;;;;;11.57;8.40;;;18.30;50.00;;;;;;6258118;22;20403;-83
2021/03/02 14:39:59;;;;;;;12.90;8.40;;;18.00;50.40;;;;;;6229310;23;20443;-83
2021/03/02 14:43:00;;;;;;;12.30;7.27;;;17.80;50.70;;;;;;6227590;23;20462;-85
2021/03/02 14:45:57;;;;;;;11.27;8.03;;;17.90;51.00;;;;;;6222685;23;20446;-84
2021/03/02 14:48:58;;;;;;;11.97;8.63;;;18.10;50.60;;;;;;6225535;23;20427;-86
2021/03/02 14:52:54;;;;;;;11.57;9.13;;;18.20;50.30;;;;;;6243640;23;20495;-83
2021/03/02 14:56:05;;;;;;;13.47;8.50;;;18.20;50.50;;;;;;6237445;23;20490;-85
2021/03/02 15:02:31;;;;;;;13.17;8.50;;;18.20;51.00;;;;;;6237955;22;20427;-86
2021/03/02 15:05:31;;;;;;;11.87;7.90;;;17.80;51.00;;;;;;6240216;22;20427;-85
2021/03/02 15:08:34;;;;;;;14.10;8.77;;;17.90;51.10;;;;;;6143911;23;20896;-85
2021/03/02 15:11:30;;;;;;;11.53;8.40;;;18.20;50.80;;;;;;6158778;23;20419;-85
2021/03/02 15:14:14;;;;;;;12.47;7.83;;;18.20;50.80;;;;;;6137689;23;20431;-83
2021/03/02 15:17:49;;;;;;;11.57;7.87;;;18.30;50.90;;;;;;6154198;23;20450;-87
2021/03/02 15:27:59;;;;;;;11.87;7.30;;;18.40;51.60;;;;;;6123441;23;20446;-86
2021/03/02 15:30:57;;;;;;;10.77;7.93;;;18.30;51.00;;;;;;6278520;22;20543;-86
2021/03/02 15:33:36;;;;;;;12.40;7.93;;;18.20;50.60;;;;;;6250665;22;20469;-85
2021/03/02 15:36:49;;;;;;;;;;;;;;;;;;;;;
2021/03/02 15:43:05;;;;;;;12.70;8.13;;;17.70;51.00;;;;;;6273606;22;20402;-86
2021/03/02 15:46:13;;;;;;;10.30;7.17;;;18.00;50.50;;;;;;6266723;22;20418;-85
2021/03/02 15:49:07;;;;;;;11.60;7.07;;;18.00;50.70;;;;;;6255034;22;20418;-85
2021/03/02 15:51:49;;;;;;;14.10;7.67;;;18.10;50.30;;;;;;6247620;22;20466;-85
2021/03/02 15:54:39;;;;;;;11.13;7.43;;;18.10;50.10;;;;;;6245772;22;20442;-85
2021/03/02 16:01:17;;;;;;;13.23;7.43;;;18.00;50.10;;;;;;6241822;22;20409;-85
2021/03/02 16:08:11;;;;;;;14.57;7.63;;;18.10;49.60;;;;;;6277343;22;20390;-86
2021/03/02 16:11:09;;;;;;;9.00;7.27;;;18.10;49.70;;;;;;6250513;22;20415;-86
2021/03/02 16:14:16;;;;;;;10.10;7.07;;;18.10;50.00;;;;;;6249277;22;20438;-83
2021/03/02 16:17:08;;;;;;;10.43;7.00;;;18.40;49.80;;;;;;6251089;22;20443;-85
2021/03/02 16:23:39;;;;;;;13.30;6.67;;;18.50;49.70;;;;;;6260597;22;20399;-86
2021/03/02 16:27:11;;;;;;;;;;;;;;;;;;;;;
2021/03/02 16:34:11;;;;;;;12.17;7.83;;;18.20;50.30;;;;;;6264452;22;20568;-83
2021/03/02 16:40:30;;;;;;;12.83;7.53;;;18.20;50.30;;;;;;6261839;22;20432;-84
2021/03/02 16:43:14;;;;;;;10.50;7.67;;;18.10;50.70;;;;;;6235692;22;20404;-86
2021/03/02 16:46:05;;;;;;;12.47;8.53;;;18.30;51.00;;;;;;6261642;22;20428;-85
2021/03/02 16:48:50;;;;;;;8.97;7.07;;;18.20;50.90;;;;;;6260284;23;20416;-84
2021/03/02 16:55:28;;;;;;;12.23;7.60;;;17.90;51.50;;;;;;6256732;22;20446;-84
2021/03/02 16:58:48;;;;;;;12.03;7.50;;;17.80;52.10;;;;;;6244189;23;20427;-85
2021/03/02 17:01:42;;;;;;;12.80;8.30;;;17.50;52.40;;;;;;6235315;23;20439;-85
2021/03/02 17:04:27;;;;;;;15.40;8.63;;;17.40;53.00;;;;;;6245834;22;21001;-84
2021/03/02 17:39:09;;;;;;;12.10;8.60;;;16.60;55.50;;;;;;6285543;22;20596;-85
2021/03/02 17:42:10;;;;;;;15.17;7.90;;;16.60;55.60;;;;;;6257320;22;20519;-85
2021/03/02 17:45:40;;;;;;;8.87;7.20;;;16.60;55.90;;;;;;6279328;22;20424;-86
2021/03/02 17:48:53;;;;;;;12.00;7.80;;;16.50;56.10;;;;;;6262489;22;20421;-83
2021/03/02 17:51:52;;;;;;;14.13;8.03;;;16.50;56.30;;;;;;6268006;22;20418;-84
2021/03/02 17:54:50;;;;;;;12.13;7.70;;;16.40;56.50;;;;;;6243446;22;20471;-84
2021/03/02 17:58:13;;;;;;;12.53;9.13;;;16.30;56.90;;;;;;6227956;23;20468;-87
2021/03/02 18:00:48;;;;;;;12.90;8.70;;;16.20;57.30;;;;;;6148612;23;20468;-86
2021/03/02 18:03:36;;;;;;;13.00;8.20;;;16.20;57.50;;;;;;6216892;23;20503;-85
2021/03/02 18:10:04;;;;;;;10.50;8.33;;;16.20;57.40;;;;;;6071362;23;21030;-85
2021/03/02 18:13:27;;;;;;;;;;;;;;;;;;;;;
2021/03/02 18:16:37;;;;;;;11.53;7.70;;;16.00;57.90;;;;;;6191937;23;20416;-84
2021/03/02 18:20:01;;;;;;;14.97;8.33;;;16.10;58.00;;;;;;6063629;23;20410;-85
2021/03/02 18:23:15;;;;;;;;;;;;;;;;;;;;;
2021/03/02 18:26:04;;;;;;;;;;;;;;;;;;;;;
2021/03/02 18:29:16;;;;;;;12.67;8.90;;;15.70;58.80;;;;;;6043631;23;20471;-85
2021/03/02 18:32:48;;;;;;;13.40;8.80;;;15.40;59.70;;;;;;6041439;23;20401;-84
2021/03/02 18:35:32;;;;;;;10.23;7.87;;;15.20;60.30;;;;;;6039511;23;20498;-84
2021/03/02 18:38:26;;;;;;;;;;;;;;;;;;;;;
2021/03/02 18:41:17;;;;;;;11.80;8.37;;;15.20;60.70;;;;;;6036417;23;20434;-84
2021/03/02 18:50:36;;;;;;;10.77;8.83;;;14.90;62.70;;;;;;6052243;23;20433;-85
2021/03/02 18:53:15;;;;;;;11.10;7.63;;;14.80;63.40;;;;;;6056314;23;20496;-86
2021/03/02 18:56:19;;;;;;;12.43;8.83;;;15.10;64.00;;;;;;6141457;23;20409;-86
2021/03/02 18:59:08;;;;;;;11.60;8.07;;;15.10;63.70;;;;;;6176095;23;20438;-85